createdAt,value
2019-01-04T00:01:36.216Z,81.81
2019-01-04T00:04:18.010Z,82.12
2019-01-04T00:06:58.124Z,81.50
2019-01-04T00:09:25.974Z,80.96
2019-01-04T00:11:53.755Z,79.70
2019-01-04T00:14:33.868Z,79.90
2019-01-04T00:17:01.585Z,79.48
2019-01-04T00:19:29.327Z,78.71
2019-01-04T00:22:20.616Z,78.64
2019-01-04T00:24:48.864Z,77.92
2019-01-04T00:27:16.595Z,77.36
2019-01-04T00:29:44.262Z,77.63
2019-01-04T00:32:12.041Z,77.75
2019-01-04T00:34:43.008Z,78.21
2019-01-04T00:37:10.796Z,78.54
2019-01-04T00:39:43.091Z,78.94
2019-01-04T00:42:33.308Z,78.79
2019-01-04T00:47:57.360Z,77.52
2019-01-04T00:50:38.382Z,78.12
2019-01-04T00:53:19.598Z,79.11
2019-01-04T00:56:26.598Z,79.06
2019-01-04T00:59:20.166Z,79.33
2019-01-04T01:02:04.255Z,79.29
2019-01-04T01:08:11.010Z,79.12
2019-01-04T01:11:17.529Z,78.92
2019-01-04T01:14:24.018Z,78.90
2019-01-04T01:17:30.685Z,78.80
2019-01-04T01:20:37.134Z,79.69
2019-01-04T01:23:43.615Z,80.10
2019-01-04T01:26:38.287Z,79.84
2019-01-04T01:29:44.691Z,79.91
2019-01-04T01:32:25.108Z,80.50
2019-01-04T01:35:31.606Z,79.99
2019-01-04T01:38:38.161Z,80.39
2019-01-04T01:41:44.669Z,80.85
2019-01-04T01:44:51.302Z,80.11
2019-01-04T01:47:41.251Z,79.84
2019-01-04T01:50:47.793Z,79.77
2019-01-04T01:53:15.802Z,80.41
2019-01-04T01:55:43.628Z,80.17
2019-01-04T01:58:11.384Z,80.03
2019-01-04T02:00:39.208Z,80.48
2019-01-04T02:03:38.507Z,79.61
2019-01-04T02:06:06.642Z,79.74
2019-01-04T02:08:54.223Z,79.23
2019-01-04T02:11:22.032Z,78.46
2019-01-04T02:14:21.875Z,78.61
2019-01-04T02:17:02.225Z,78.86
2019-01-04T02:19:49.397Z,77.54
2019-01-04T02:22:32.375Z,76.93
2019-01-04T02:25:00.157Z,77.17
2019-01-04T02:27:40.759Z,77.33
2019-01-04T02:32:51.985Z,76.10
2019-01-04T02:35:19.809Z,76.91
2019-01-04T02:40:48.721Z,77.60
2019-01-04T02:46:17.620Z,78.61
2019-01-04T02:51:46.800Z,77.62
2019-01-04T02:54:16.372Z,77.88
2019-01-04T02:56:44.153Z,78.91
2019-01-04T02:59:14.496Z,78.01
2019-01-04T03:01:42.199Z,78.50
2019-01-04T03:04:09.880Z,78.41
2019-01-04T03:07:09.551Z,77.98
2019-01-04T03:09:37.329Z,77.85
2019-01-04T03:12:17.533Z,78.33
2019-01-04T03:14:45.365Z,79.68
2019-01-04T03:17:13.139Z,79.49
2019-01-04T03:19:40.856Z,80.48
2019-01-04T03:22:10.441Z,80.56
2019-01-04T03:27:39.651Z,80.72
2019-01-04T03:30:07.594Z,81.99
2019-01-04T03:32:35.426Z,82.71
2019-01-04T03:35:03.096Z,82.62
2019-01-04T03:37:30.881Z,83.24
2019-01-04T03:43:12.164Z,82.29
2019-01-04T03:46:11.585Z,82.01
2019-01-04T03:48:59.060Z,80.45
2019-01-04T03:51:38.884Z,80.76
2019-01-04T03:54:18.150Z,78.60
2019-01-04T04:03:29.457Z,78.16
2019-01-04T04:06:29.537Z,78.33
2019-01-04T04:09:29.605Z,77.18
2019-01-04T04:12:29.832Z,77.66
2019-01-04T04:15:10.353Z,78.16
2019-01-04T04:18:00.513Z,77.87
2019-01-04T04:20:49.705Z,77.73
2019-01-04T04:23:49.246Z,75.90
2019-01-04T04:26:16.978Z,76.57
2019-01-04T04:29:16.499Z,76.96
2019-01-04T04:32:16.844Z,76.96
2019-01-04T04:35:17.068Z,77.11
2019-01-04T04:38:17.463Z,77.48
2019-01-04T04:41:17.633Z,78.20
2019-01-04T04:44:17.726Z,78.09
2019-01-04T04:46:56.909Z,78.37
2019-01-04T04:49:57.231Z,79.05
2019-01-04T04:52:57.397Z,80.37
2019-01-04T04:55:25.121Z,78.13
2019-01-04T04:57:52.877Z,78.32
2019-01-04T05:00:20.723Z,77.67
2019-01-04T05:02:48.496Z,78.25
2019-01-04T05:05:16.242Z,77.87
2019-01-04T05:07:44.149Z,78.78
2019-01-04T05:10:11.897Z,77.75
2019-01-04T05:12:59.035Z,77.03
2019-01-04T05:15:46.494Z,76.63
2019-01-04T05:18:37.675Z,76.93
2019-01-04T05:31:52.521Z,74.21
2019-01-04T05:34:52.006Z,74.42
2019-01-04T05:40:53.431Z,76.13
2019-01-04T05:43:40.586Z,76.05
2019-01-04T05:46:08.342Z,74.56
2019-01-04T05:48:36.139Z,74.27
2019-01-04T05:51:03.926Z,76.24
2019-01-04T05:53:34.754Z,76.23
2019-01-04T05:56:02.532Z,76.09
2019-01-04T05:58:32.415Z,75.22
2019-01-04T06:01:12.804Z,75.27
2019-01-04T06:03:40.573Z,76.02
2019-01-04T06:06:08.318Z,77.17
2019-01-04T06:08:35.911Z,76.94
2019-01-04T06:11:03.663Z,76.94
2019-01-04T06:13:33.989Z,76.71
2019-01-04T06:16:01.741Z,77.79
2019-01-04T06:18:55.772Z,77.11
2019-01-04T06:21:55.322Z,78.01
2019-01-04T06:27:47.128Z,77.16
2019-01-04T06:30:14.792Z,78.27
2019-01-04T06:32:42.619Z,77.99
2019-01-04T06:35:10.703Z,78.11
2019-01-04T06:37:38.631Z,77.86
2019-01-04T06:43:38.456Z,79.24
2019-01-04T06:46:38.757Z,78.52
2019-01-04T06:49:38.398Z,78.23
2019-01-04T06:52:06.428Z,77.41
2019-01-04T06:55:12.876Z,77.45
2019-01-04T06:57:40.638Z,77.67
2019-01-04T07:00:08.528Z,77.89
2019-01-04T07:02:36.346Z,77.63
2019-01-04T07:05:04.301Z,77.37
2019-01-04T07:07:32.040Z,77.15
2019-01-04T07:09:59.740Z,76.82
2019-01-04T07:12:33.705Z,75.82
2019-01-04T07:15:02.318Z,74.60
2019-01-04T07:17:29.978Z,73.95
2019-01-04T07:19:57.720Z,73.12
2019-01-04T07:25:42.564Z,71.59
2019-01-04T07:28:28.183Z,70.41
2019-01-04T07:31:48.891Z,69.44
2019-01-04T07:34:29.283Z,69.12
2019-01-04T07:37:08.442Z,68.09
2019-01-04T07:39:36.172Z,66.76
2019-01-04T07:42:03.873Z,65.49
2019-01-04T07:44:31.857Z,65.17
2019-01-04T07:46:59.659Z,65.17
2019-01-04T07:49:27.295Z,63.10
2019-01-04T07:51:55.022Z,63.04
2019-01-04T07:54:22.673Z,62.34
2019-01-04T07:56:50.320Z,62.39
2019-01-04T07:59:17.980Z,61.64
2019-01-04T08:01:45.697Z,61.11
2019-01-04T08:04:13.379Z,59.82
2019-01-04T08:06:41.055Z,59.84
2019-01-04T08:09:08.688Z,59.97
2019-01-04T08:11:36.421Z,59.82
2019-01-04T08:14:04.077Z,58.88
2019-01-04T08:17:04.934Z,58.07
2019-01-04T08:19:32.669Z,57.91
2019-01-04T08:22:00.486Z,56.73
2019-01-04T08:24:39.472Z,57.48
2019-01-04T08:27:06.867Z,56.47
2019-01-04T08:29:34.530Z,56.13
2019-01-04T08:32:14.480Z,55.35
2019-01-04T08:34:42.300Z,55.99
2019-01-04T08:37:10.017Z,54.41
2019-01-04T08:39:38.416Z,54.43
2019-01-04T08:42:06.323Z,54.56
2019-01-04T08:44:34.115Z,55.05
2019-01-04T08:47:02.708Z,54.19
2019-01-04T08:49:30.843Z,52.96
2019-01-04T08:51:58.590Z,52.39
2019-01-04T08:54:26.348Z,52.66
2019-01-04T08:56:54.087Z,52.46
2019-01-04T08:59:21.787Z,51.62
2019-01-04T09:01:49.639Z,52.93
2019-01-04T09:04:17.356Z,51.90
2019-01-04T09:06:45.257Z,51.08
2019-01-04T09:11:53.867Z,49.76
2019-01-04T09:14:21.553Z,49.50
2019-01-04T09:16:49.271Z,50.20
2019-01-04T09:19:17.827Z,49.11
2019-01-04T09:21:45.516Z,49.67
2019-01-04T09:24:13.300Z,49.44
2019-01-04T09:26:41.007Z,49.30
2019-01-04T09:29:08.808Z,49.10
2019-01-04T09:31:36.596Z,49.75
2019-01-04T09:34:04.312Z,48.06
2019-01-04T09:36:31.972Z,48.38
2019-01-04T09:39:03.269Z,48.04
2019-01-04T09:41:48.431Z,49.34
2019-01-04T09:44:16.020Z,48.94
2019-01-04T09:47:16.011Z,48.21
2019-01-04T09:56:31.437Z,48.06
2019-01-04T09:59:30.943Z,53.58
2019-01-04T10:02:31.043Z,55.96
2019-01-04T10:05:21.807Z,50.06
2019-01-04T10:10:50.729Z,54.56
2019-01-04T10:13:50.719Z,56.12
2019-01-04T10:16:18.485Z,49.20
2019-01-04T10:21:46.910Z,49.61
2019-01-04T10:24:47.315Z,56.50
2019-01-04T10:27:15.097Z,51.38
2019-01-04T10:30:14.698Z,52.23
2019-01-04T10:32:54.922Z,65.88
2019-01-04T10:35:22.888Z,51.08
2019-01-04T10:38:23.165Z,50.29
2019-01-04T10:41:24.467Z,50.61
2019-01-04T10:47:03.847Z,48.72
2019-01-04T10:50:03.228Z,48.41
2019-01-04T10:53:02.368Z,48.02
2019-01-04T10:56:02.503Z,48.19
2019-01-04T11:01:31.850Z,49.67
2019-01-04T11:04:12.519Z,47.89
2019-01-04T11:07:12.114Z,47.97
2019-01-04T11:09:39.813Z,49.39
2019-01-04T11:12:39.306Z,46.18
2019-01-04T11:15:39.471Z,47.97
2019-01-04T11:18:28.372Z,47.43
2019-01-04T11:24:50.154Z,48.55
2019-01-04T11:27:53.285Z,49.50
2019-01-04T11:31:06.672Z,49.88
2019-01-04T11:34:19.397Z,51.30
2019-01-04T11:37:25.856Z,54.58
2019-01-04T11:40:30.813Z,54.58
2019-01-04T11:43:37.225Z,61.75
2019-01-04T11:46:43.737Z,51.35
2019-01-04T11:49:42.319Z,56.69
2019-01-04T11:52:45.062Z,51.25
2019-01-04T11:55:33.979Z,49.15
2019-01-04T11:58:36.216Z,50.16
2019-01-04T12:01:36.510Z,48.38
2019-01-04T12:04:25.408Z,48.28
2019-01-04T12:07:24.891Z,55.99
2019-01-04T12:19:08.701Z,48.62
2019-01-04T12:21:47.723Z,49.89
2019-01-04T12:24:48.060Z,49.46
2019-01-04T12:27:48.215Z,49.65
2019-01-04T12:30:47.603Z,49.63
2019-01-04T12:33:47.838Z,48.57
2019-01-04T12:36:34.929Z,50.74
2019-01-04T12:39:26.615Z,50.06
2019-01-04T12:44:53.785Z,50.46
2019-01-04T12:50:55.335Z,52.24
2019-01-04T12:53:35.273Z,52.07
2019-01-04T12:56:35.475Z,52.92
2019-01-04T12:59:24.373Z,52.92
2019-01-04T13:02:23.906Z,52.01
2019-01-04T13:05:24.282Z,51.76
2019-01-04T13:08:24.672Z,52.55
2019-01-04T13:11:24.463Z,51.75
2019-01-04T13:14:24.463Z,52.51
2019-01-04T13:17:24.573Z,53.96
2019-01-04T13:19:52.483Z,53.54
2019-01-04T13:22:20.322Z,52.91
2019-01-04T13:25:13.038Z,54.85
2019-01-04T13:28:12.959Z,52.57
2019-01-04T13:31:00.626Z,53.41
2019-01-04T13:34:00.571Z,54.46
2019-01-04T13:36:28.363Z,54.75
2019-01-04T13:39:07.481Z,55.36
2019-01-04T13:42:07.861Z,54.63
2019-01-04T13:44:35.576Z,55.05
2019-01-04T13:47:35.125Z,52.00
2019-01-04T14:02:48.353Z,53.95
2019-01-04T14:05:15.956Z,54.07
2019-01-04T14:07:43.685Z,54.85
2019-01-04T14:10:11.249Z,54.48
2019-01-04T14:12:40.829Z,53.53
2019-01-04T14:15:08.485Z,55.01
2019-01-04T14:17:36.134Z,55.10
2019-01-04T14:20:04.117Z,55.49
2019-01-04T14:25:11.691Z,56.72
2019-01-04T14:27:41.344Z,56.39
2019-01-04T14:30:10.830Z,56.95
2019-01-04T14:32:57.983Z,57.83
2019-01-04T14:38:26.642Z,57.90
2019-01-04T14:44:03.586Z,58.15
2019-01-04T14:52:04.304Z,60.08
2019-01-04T14:58:05.633Z,60.72
2019-01-04T15:01:05.922Z,61.03
2019-01-04T15:04:06.244Z,61.17
2019-01-04T15:07:06.514Z,61.97
2019-01-04T15:10:05.965Z,62.09
2019-01-04T15:13:06.255Z,63.77
2019-01-04T15:16:06.283Z,61.81
2019-01-04T15:19:06.431Z,61.46
2019-01-04T15:22:05.802Z,60.29
2019-01-04T15:24:55.686Z,60.38
2019-01-04T15:28:15.061Z,59.78
2019-01-04T15:31:04.064Z,60.87
2019-01-04T15:37:05.046Z,63.12
2019-01-04T15:40:05.315Z,63.55
2019-01-04T15:43:05.543Z,62.61
2019-01-04T15:45:52.595Z,63.41
2019-01-04T15:52:10.347Z,61.83
2019-01-04T15:55:10.477Z,62.06
2019-01-04T16:01:19.219Z,61.83
2019-01-04T16:04:19.454Z,62.58
2019-01-04T16:07:08.748Z,62.60
2019-01-04T16:10:08.062Z,62.32
2019-01-04T16:13:08.233Z,63.56
2019-01-04T16:15:57.251Z,62.28
2019-01-04T16:21:48.545Z,62.61
2019-01-04T16:24:37.504Z,64.36
2019-01-04T16:27:16.572Z,62.85
2019-01-04T16:30:16.172Z,62.54
2019-01-04T16:33:16.502Z,63.47
2019-01-04T16:36:16.894Z,65.14
2019-01-04T16:39:17.253Z,64.94
2019-01-04T16:42:17.425Z,66.36
2019-01-04T16:44:45.117Z,67.34
2019-01-04T16:47:25.267Z,66.84
2019-01-04T16:50:25.991Z,66.85
2019-01-04T16:52:59.345Z,67.38
2019-01-04T16:55:37.142Z,68.26
2019-01-04T16:58:06.653Z,67.30
2019-01-04T17:01:06.083Z,67.93
2019-01-04T17:03:33.839Z,67.44
2019-01-04T17:09:34.870Z,64.11
2019-01-04T17:15:19.606Z,65.03
2019-01-04T17:21:02.370Z,64.56
2019-01-04T17:26:52.719Z,66.77
2019-01-04T17:35:50.154Z,66.90
2019-01-04T17:38:41.117Z,66.79
2019-01-04T17:44:44.657Z,65.49
2019-01-04T17:51:11.709Z,66.63
2019-01-04T17:53:54.415Z,64.74
2019-01-04T17:56:41.187Z,85.82
2019-01-04T17:59:40.104Z,84.58
2019-01-04T18:05:41.894Z,66.89
2019-01-04T18:08:28.990Z,66.28
2019-01-04T18:14:49.341Z,65.64
2019-01-04T18:17:18.337Z,65.98
2019-01-04T18:23:24.018Z,66.85
2019-01-04T18:32:36.844Z,66.73
2019-01-04T18:35:54.441Z,68.20
2019-01-04T18:38:33.936Z,70.30
2019-01-04T18:41:36.274Z,70.43
2019-01-04T18:44:35.937Z,70.52
2019-01-04T18:47:24.537Z,71.02
2019-01-04T18:50:23.242Z,70.47
2019-01-04T18:56:26.254Z,68.27
2019-01-04T18:59:15.787Z,68.22
2019-01-04T19:05:08.758Z,69.34
2019-01-04T19:08:15.791Z,71.55
2019-01-04T19:20:16.999Z,72.79
2019-01-04T19:23:10.275Z,73.64
2019-01-04T19:26:09.949Z,73.04
2019-01-04T19:29:10.127Z,72.38
2019-01-04T19:32:09.510Z,72.75
2019-01-04T19:37:56.532Z,73.40
2019-01-04T19:40:56.225Z,72.67
2019-01-04T19:46:56.846Z,72.67
2019-01-04T19:49:56.984Z,72.96
2019-01-04T19:52:57.298Z,73.88
2019-01-04T19:55:57.565Z,74.78
2019-01-04T19:58:58.730Z,75.54
2019-01-04T20:01:58.747Z,76.11
2019-01-04T20:04:59.948Z,75.82
2019-01-04T20:08:26.027Z,75.46
2019-01-04T20:15:33.918Z,76.46
2019-01-04T20:18:34.532Z,76.23
2019-01-04T20:21:35.535Z,75.60
2019-01-04T20:28:01.292Z,75.26
2019-01-04T20:31:01.424Z,75.68
2019-01-04T20:34:01.471Z,76.01
2019-01-04T20:37:12.728Z,76.12
2019-01-04T20:40:21.204Z,76.38
2019-01-04T20:55:36.860Z,77.01
2019-01-04T20:58:37.148Z,77.06
2019-01-04T21:04:25.519Z,77.04
2019-01-04T21:07:24.872Z,76.72
2019-01-04T21:13:28.490Z,77.07
2019-01-04T21:16:28.608Z,76.56
2019-01-04T21:22:24.165Z,75.39
2019-01-04T21:31:45.119Z,75.19
2019-01-04T21:37:34.216Z,76.38
2019-01-04T21:40:33.726Z,77.55
2019-01-04T21:46:16.203Z,77.92
2019-01-04T21:49:22.750Z,78.36
2019-01-04T21:52:01.782Z,78.03
2019-01-04T21:55:01.530Z,77.05
2019-01-04T21:58:10.147Z,77.00
2019-01-04T22:01:09.694Z,77.74
2019-01-04T22:04:09.022Z,77.35
2019-01-04T22:16:32.356Z,77.23
2019-01-04T22:22:33.650Z,77.97
2019-01-04T22:25:33.167Z,77.43
2019-01-04T22:31:37.865Z,76.64
2019-01-04T22:34:37.278Z,76.41
2019-01-04T22:37:37.467Z,76.87
2019-01-04T22:40:38.831Z,77.25
2019-01-04T22:47:04.313Z,77.57
2019-01-04T22:53:14.957Z,78.27
2019-01-04T22:56:14.240Z,77.54
2019-01-04T22:59:25.537Z,77.63
2019-01-04T23:02:27.061Z,77.66
2019-01-04T23:08:45.466Z,76.71
2019-01-04T23:11:44.807Z,75.42
2019-01-04T23:17:47.141Z,76.65
2019-01-04T23:20:48.608Z,76.97
2019-01-04T23:23:48.913Z,77.85
2019-01-04T23:26:37.891Z,77.96
2019-01-04T23:29:37.928Z,78.32
2019-01-04T23:32:38.130Z,78.53
2019-01-04T23:35:46.507Z,78.71
2019-01-04T23:38:46.539Z,78.07
2019-01-04T23:41:33.671Z,78.52
2019-01-04T23:44:33.045Z,78.06
2019-01-04T23:47:20.413Z,77.49
2019-01-04T23:50:07.564Z,77.15
2019-01-04T23:53:07.497Z,78.72
2019-01-04T23:55:54.831Z,78.47
2019-01-04T23:58:54.469Z,79.00
